createdAt,value
2022-09-30T00:02:01.877Z,14.67
2022-09-30T00:07:05.118Z,14.30
2022-09-30T00:12:07.975Z,15.15
2022-09-30T00:17:10.803Z,17.97
2022-09-30T00:22:14.261Z,18.57
2022-09-30T00:27:18.386Z,17.06
2022-09-30T00:32:21.261Z,16.12
2022-09-30T00:37:24.137Z,15.49
2022-09-30T00:42:29.672Z,14.98
2022-09-30T00:47:48.674Z,14.56
2022-09-30T00:53:03.484Z,14.21
2022-09-30T00:58:09.921Z,15.21
2022-09-30T01:03:13.105Z,18.04
2022-09-30T01:08:18.535Z,18.58
2022-09-30T01:13:26.453Z,17.07
2022-09-30T01:18:53.838Z,16.18
2022-09-30T01:24:02.926Z,15.55
2022-09-30T01:29:14.339Z,15.08
2022-09-30T01:34:37.541Z,14.67
2022-09-30T01:39:43.354Z,15.58
2022-09-30T01:45:09.780Z,18.27
2022-09-30T01:50:35.275Z,18.77
2022-09-30T01:55:53.767Z,17.18
2022-09-30T02:01:01.313Z,16.28
2022-09-30T02:06:08.918Z,15.67
2022-09-30T02:11:24.125Z,15.19
2022-09-30T02:16:35.711Z,14.77
2022-09-30T02:21:42.303Z,15.63
2022-09-30T02:26:49.397Z,18.32
2022-09-30T02:31:56.420Z,18.59
2022-09-30T02:37:25.646Z,17.15
2022-09-30T02:42:30.576Z,16.26
2022-09-30T02:47:54.515Z,15.68
2022-09-30T02:53:00.177Z,15.20
2022-09-30T02:58:15.381Z,16.03
2022-09-30T03:03:33.074Z,18.75
2022-09-30T03:08:36.121Z,18.52
2022-09-30T03:14:14.283Z,17.16
2022-09-30T03:19:34.979Z,16.30
2022-09-30T03:25:09.412Z,15.72
2022-09-30T03:30:22.137Z,15.23
2022-09-30T03:35:38.014Z,16.11
2022-09-30T03:41:00.093Z,18.84
2022-09-30T03:46:11.877Z,18.52
2022-09-30T03:51:15.346Z,17.14
2022-09-30T03:56:26.246Z,16.36
2022-09-30T04:01:29.427Z,15.77
2022-09-30T04:06:32.287Z,15.31
2022-09-30T04:11:35.303Z,16.22
2022-09-30T04:16:38.237Z,18.85
2022-09-30T04:21:41.239Z,18.88
2022-09-30T04:26:44.033Z,17.42
2022-09-30T04:31:47.160Z,16.54
2022-09-30T04:36:50.089Z,15.94
2022-09-30T04:41:54.081Z,15.46
2022-09-30T04:46:57.364Z,16.34
2022-09-30T04:52:00.379Z,19.04
2022-09-30T04:57:03.473Z,19.18
2022-09-30T05:02:06.582Z,17.67
2022-09-30T05:07:09.420Z,16.85
2022-09-30T05:12:12.741Z,16.25
2022-09-30T05:17:15.608Z,15.74
2022-09-30T05:22:18.675Z,16.54
2022-09-30T05:27:22.844Z,19.31
2022-09-30T05:32:32.931Z,19.15
2022-09-30T05:37:35.751Z,17.64
2022-09-30T05:42:38.694Z,16.77
2022-09-30T05:47:42.332Z,16.14
2022-09-30T05:52:45.260Z,15.69
2022-09-30T05:57:49.756Z,16.60
2022-09-30T06:02:52.790Z,19.41
2022-09-30T06:07:55.682Z,19.56
2022-09-30T06:12:59.272Z,18.01
2022-09-30T06:18:02.699Z,17.10
2022-09-30T06:23:05.529Z,16.47
2022-09-30T06:28:08.424Z,17.13
2022-09-30T06:33:11.542Z,19.76
2022-09-30T06:38:18.521Z,19.95
2022-09-30T06:43:21.372Z,18.35
2022-09-30T06:48:35.583Z,17.37
2022-09-30T06:53:41.614Z,16.70
2022-09-30T06:58:47.639Z,16.20
2022-09-30T07:03:58.057Z,16.89
2022-09-30T07:09:01.044Z,19.45
2022-09-30T07:14:06.237Z,19.80
2022-09-30T07:19:11.424Z,18.30
2022-09-30T07:24:15.133Z,17.35
2022-09-30T07:29:18.489Z,16.71
2022-09-30T07:34:22.211Z,17.25
2022-09-30T07:39:25.072Z,19.78
2022-09-30T07:44:29.502Z,19.64
2022-09-30T07:49:32.635Z,18.19
2022-09-30T07:54:41.314Z,17.33
2022-09-30T07:59:45.473Z,16.70
2022-09-30T08:04:48.479Z,17.32
2022-09-30T08:09:51.540Z,19.77
2022-09-30T08:14:54.416Z,20.11
2022-09-30T08:19:57.299Z,18.60
2022-09-30T08:25:00.326Z,17.67
2022-09-30T08:30:05.219Z,17.03
2022-09-30T08:35:09.044Z,16.53
2022-09-30T08:40:28.645Z,17.20
2022-09-30T08:45:41.069Z,19.56
2022-09-30T08:51:06.107Z,20.04
2022-09-30T08:56:17.867Z,18.48
2022-09-30T09:01:27.446Z,17.56
2022-09-30T09:07:10.009Z,16.95
2022-09-30T09:12:37.139Z,17.81
2022-09-30T09:18:21.531Z,20.17
2022-09-30T09:23:19.349Z,19.37
2022-09-30T09:28:30.986Z,18.13
2022-09-30T09:33:39.819Z,17.40
2022-09-30T09:39:13.650Z,16.88
2022-09-30T09:44:56.675Z,17.68
2022-09-30T09:50:04.391Z,20.17
2022-09-30T09:55:09.681Z,19.96
2022-09-30T10:00:43.036Z,18.51
2022-09-30T10:06:00.741Z,17.59
2022-09-30T10:11:25.607Z,17.05
2022-09-30T10:16:32.309Z,18.84
2022-09-30T10:21:35.276Z,19.91
2022-09-30T10:26:47.830Z,18.55
2022-09-30T10:31:58.968Z,17.65
2022-09-30T10:37:10.713Z,17.07
2022-09-30T10:42:26.370Z,17.76
2022-09-30T10:47:36.251Z,20.34
2022-09-30T10:52:50.599Z,20.62
2022-09-30T10:57:55.030Z,19.03
2022-09-30T11:03:00.428Z,18.11
2022-09-30T11:08:09.434Z,17.47
2022-09-30T11:13:30.784Z,17.00
2022-09-30T11:18:54.413Z,17.83
2022-09-30T11:24:03.021Z,20.33
2022-09-30T11:29:14.126Z,20.69
2022-09-30T11:34:36.909Z,19.20
2022-09-30T11:40:22.901Z,18.26
2022-09-30T11:45:54.159Z,17.58
2022-09-30T11:51:15.438Z,18.36
2022-09-30T11:56:46.927Z,20.80
2022-09-30T12:01:53.235Z,20.41
2022-09-30T12:07:04.290Z,19.04
2022-09-30T12:12:16.032Z,18.26
2022-09-30T12:17:33.655Z,17.68
2022-09-30T12:22:44.225Z,18.36
2022-09-30T12:27:56.753Z,20.66
2022-09-30T12:33:11.425Z,20.96
2022-09-30T12:38:44.984Z,19.43
2022-09-30T12:44:00.844Z,18.45
2022-09-30T12:49:06.553Z,17.83
2022-09-30T12:54:29.094Z,17.34
2022-09-30T12:59:36.621Z,18.19
2022-09-30T13:04:43.094Z,20.62
2022-09-30T13:10:01.127Z,20.75
2022-09-30T13:15:42.557Z,19.23
2022-09-30T13:20:57.574Z,18.32
2022-09-30T13:26:02.225Z,17.77
2022-09-30T13:31:24.984Z,18.37
2022-09-30T13:36:41.386Z,20.92
2022-09-30T13:41:48.508Z,20.52
2022-09-30T13:46:56.980Z,19.19
2022-09-30T13:52:01.142Z,18.43
2022-09-30T13:57:05.821Z,17.88
2022-09-30T14:02:40.497Z,18.49
2022-09-30T14:08:12.635Z,21.04
2022-09-30T14:13:52.888Z,20.28
2022-09-30T14:19:14.126Z,18.99
2022-09-30T14:24:24.197Z,18.31
2022-09-30T14:29:46.819Z,17.83
2022-09-30T14:34:49.969Z,18.68
2022-09-30T14:39:55.511Z,21.04
2022-09-30T14:45:04.729Z,20.41
2022-09-30T14:50:20.783Z,19.12
2022-09-30T14:55:28.856Z,18.36
2022-09-30T15:00:32.154Z,17.78
2022-09-30T15:05:36.641Z,18.31
2022-09-30T15:10:47.568Z,20.69
2022-09-30T15:15:51.014Z,20.71
2022-09-30T15:21:00.347Z,19.27
2022-09-30T15:26:04.120Z,18.43
2022-09-30T15:31:15.996Z,17.84
2022-09-30T15:36:19.160Z,18.47
2022-09-30T15:41:22.522Z,20.85
2022-09-30T15:46:38.715Z,20.27
2022-09-30T15:51:43.525Z,18.96
2022-09-30T15:56:46.617Z,18.25
2022-09-30T16:01:52.405Z,17.70
2022-09-30T16:07:10.032Z,18.37
2022-09-30T16:12:12.888Z,20.87
2022-09-30T16:17:34.543Z,20.47
2022-09-30T16:22:40.478Z,19.06
2022-09-30T16:27:43.761Z,18.30
2022-09-30T16:32:51.897Z,17.72
2022-09-30T16:38:03.236Z,18.40
2022-09-30T16:43:07.911Z,20.92
2022-09-30T16:48:18.947Z,21.13
2022-09-30T16:53:22.160Z,19.53
2022-09-30T16:58:25.346Z,18.56
2022-09-30T17:03:28.381Z,17.90
2022-09-30T17:08:31.608Z,18.44
2022-09-30T17:13:35.289Z,20.76
2022-09-30T17:18:38.548Z,20.99
2022-09-30T17:23:41.522Z,19.45
2022-09-30T17:28:45.231Z,18.50
2022-09-30T17:33:50.063Z,17.83
2022-09-30T17:38:54.727Z,18.40
2022-09-30T17:44:02.627Z,20.92
2022-09-30T17:49:09.958Z,20.33
2022-09-30T17:54:18.851Z,18.89
2022-09-30T17:59:22.228Z,18.08
2022-09-30T18:04:26.240Z,17.46
2022-09-30T18:09:29.333Z,18.12
2022-09-30T18:14:38.476Z,20.72
2022-09-30T18:19:41.716Z,20.42
2022-09-30T18:25:07.245Z,18.92
2022-09-30T18:30:13.913Z,18.01
2022-09-30T18:35:20.193Z,17.39
2022-09-30T18:40:26.168Z,17.97
2022-09-30T18:45:31.594Z,20.44
2022-09-30T18:50:34.792Z,20.59
2022-09-30T18:55:38.637Z,19.04
2022-09-30T19:00:42.186Z,18.12
2022-09-30T19:05:45.187Z,17.47
2022-09-30T19:10:48.299Z,18.05
2022-09-30T19:15:51.144Z,20.46
2022-09-30T19:20:54.485Z,20.35
2022-09-30T19:25:58.789Z,18.84
2022-09-30T19:31:17.361Z,17.95
2022-09-30T19:36:21.430Z,17.29
2022-09-30T19:41:27.834Z,17.89
2022-09-30T19:46:35.018Z,20.42
2022-09-30T19:51:39.376Z,20.63
2022-09-30T19:56:43.331Z,19.02
2022-09-30T20:01:48.047Z,18.10
2022-09-30T20:06:54.426Z,17.47
2022-09-30T20:11:58.528Z,16.92
2022-09-30T20:17:03.133Z,17.67
2022-09-30T20:22:06.995Z,20.32
2022-09-30T20:27:12.979Z,20.59
2022-09-30T20:32:17.711Z,19.01
2022-09-30T20:37:22.863Z,18.08
2022-09-30T20:42:30.950Z,17.45
2022-09-30T20:47:37.342Z,16.87
2022-09-30T20:52:41.350Z,17.63
2022-09-30T20:57:45.131Z,20.36
2022-09-30T21:02:53.191Z,20.85
2022-09-30T21:07:57.919Z,19.13
2022-09-30T21:13:02.990Z,18.09
2022-09-30T21:18:07.840Z,17.40
2022-09-30T21:23:13.425Z,18.01
2022-09-30T21:28:19.873Z,20.63
2022-09-30T21:33:26.515Z,20.52
2022-09-30T21:38:32.136Z,18.92
2022-09-30T21:43:37.634Z,17.99
2022-09-30T21:48:43.045Z,17.32
2022-09-30T21:53:49.600Z,17.99
2022-09-30T21:58:53.206Z,20.57
2022-09-30T22:03:56.979Z,20.93
2022-09-30T22:09:02.242Z,19.27
2022-09-30T22:14:06.931Z,18.23
2022-09-30T22:19:13.720Z,17.55
2022-09-30T22:24:17.694Z,18.20
2022-09-30T22:29:21.567Z,20.70
2022-09-30T22:34:43.927Z,20.79
2022-09-30T22:39:48.770Z,19.08
2022-09-30T22:44:53.368Z,18.13
2022-09-30T22:49:57.813Z,17.47
2022-09-30T22:55:04.184Z,18.06
2022-09-30T23:00:08.405Z,20.57
2022-09-30T23:05:11.379Z,20.69
2022-09-30T23:10:21.280Z,19.03
2022-09-30T23:15:24.115Z,18.07
2022-09-30T23:20:27.088Z,17.39
2022-09-30T23:25:31.678Z,17.98
2022-09-30T23:30:35.300Z,20.54
2022-09-30T23:35:38.170Z,20.63
2022-09-30T23:40:48.536Z,19.04
2022-09-30T23:45:51.526Z,18.09
2022-09-30T23:50:54.694Z,17.44
2022-09-30T23:56:02.953Z,18.10
